sensor_id;sensor_type;location;lat;lon;timestamp;P1;durP1;ratioP1;P2;durP2;ratioP2
73940;SDS011;62294;48.554;10.202;2023-08-21T00:00:39;9.05;;;6.97;;
73940;SDS011;62294;48.554;10.202;2023-08-21T00:03:06;9.50;;;7.00;;
73940;SDS011;62294;48.554;10.202;2023-08-21T00:05:33;11.10;;;7.10;;
73940;SDS011;62294;48.554;10.202;2023-08-21T00:08:00;10.68;;;6.95;;
73940;SDS011;62294;48.554;10.202;2023-08-21T00:10:26;8.63;;;6.57;;
73940;SDS011;62294;48.554;10.202;2023-08-21T00:12:53;10.02;;;6.80;;
73940;SDS011;62294;48.554;10.202;2023-08-21T00:15:19;9.80;;;6.90;;
73940;SDS011;62294;48.554;10.202;2023-08-21T00:17:46;10.50;;;7.18;;
73940;SDS011;62294;48.554;10.202;2023-08-21T00:20:13;10.52;;;7.32;;
73940;SDS011;62294;48.554;10.202;2023-08-21T00:22:39;8.57;;;6.97;;
73940;SDS011;62294;48.554;10.202;2023-08-21T00:25:06;10.10;;;6.93;;
73940;SDS011;62294;48.554;10.202;2023-08-21T00:27:33;12.60;;;7.13;;
73940;SDS011;62294;48.554;10.202;2023-08-21T00:30:00;9.70;;;6.97;;
73940;SDS011;62294;48.554;10.202;2023-08-21T00:32:26;11.48;;;6.72;;
73940;SDS011;62294;48.554;10.202;2023-08-21T00:34:53;10.07;;;6.82;;
73940;SDS011;62294;48.554;10.202;2023-08-21T00:37:19;8.85;;;7.07;;
73940;SDS011;62294;48.554;10.202;2023-08-21T00:39:46;10.75;;;6.90;;
73940;SDS011;62294;48.554;10.202;2023-08-21T00:42:12;11.00;;;6.93;;
73940;SDS011;62294;48.554;10.202;2023-08-21T00:44:39;9.88;;;7.10;;
73940;SDS011;62294;48.554;10.202;2023-08-21T00:47:05;9.32;;;7.32;;
73940;SDS011;62294;48.554;10.202;2023-08-21T00:49:32;9.55;;;7.05;;
73940;SDS011;62294;48.554;10.202;2023-08-21T00:51:59;10.50;;;7.97;;
73940;SDS011;62294;48.554;10.202;2023-08-21T00:54:27;9.02;;;7.28;;
73940;SDS011;62294;48.554;10.202;2023-08-21T00:56:53;10.18;;;7.28;;
73940;SDS011;62294;48.554;10.202;2023-08-21T00:59:21;9.93;;;7.35;;
73940;SDS011;62294;48.554;10.202;2023-08-21T01:01:48;13.35;;;8.00;;
73940;SDS011;62294;48.554;10.202;2023-08-21T01:04:15;11.13;;;7.38;;
73940;SDS011;62294;48.554;10.202;2023-08-21T01:06:41;8.23;;;7.00;;
73940;SDS011;62294;48.554;10.202;2023-08-21T01:09:13;8.90;;;7.30;;
73940;SDS011;62294;48.554;10.202;2023-08-21T01:14:51;9.93;;;7.32;;
73940;SDS011;62294;48.554;10.202;2023-08-21T01:17:24;10.68;;;7.57;;
73940;SDS011;62294;48.554;10.202;2023-08-21T01:19:51;9.75;;;7.07;;
73940;SDS011;62294;48.554;10.202;2023-08-21T01:22:19;10.30;;;7.85;;
73940;SDS011;62294;48.554;10.202;2023-08-21T01:24:46;10.15;;;6.95;;
73940;SDS011;62294;48.554;10.202;2023-08-21T01:27:12;11.35;;;8.07;;
73940;SDS011;62294;48.554;10.202;2023-08-21T01:29:40;10.90;;;7.47;;
73940;SDS011;62294;48.554;10.202;2023-08-21T01:32:21;9.13;;;7.03;;
73940;SDS011;62294;48.554;10.202;2023-08-21T01:34:52;10.63;;;6.93;;
73940;SDS011;62294;48.554;10.202;2023-08-21T01:37:23;10.35;;;7.35;;
73940;SDS011;62294;48.554;10.202;2023-08-21T01:39:50;8.80;;;6.88;;
73940;SDS011;62294;48.554;10.202;2023-08-21T01:42:17;10.85;;;7.03;;
73940;SDS011;62294;48.554;10.202;2023-08-21T01:44:43;8.50;;;7.05;;
73940;SDS011;62294;48.554;10.202;2023-08-21T01:47:13;11.23;;;7.20;;
73940;SDS011;62294;48.554;10.202;2023-08-21T01:49:39;8.60;;;6.90;;
73940;SDS011;62294;48.554;10.202;2023-08-21T01:52:06;9.75;;;7.25;;
73940;SDS011;62294;48.554;10.202;2023-08-21T01:54:33;11.55;;;7.57;;
73940;SDS011;62294;48.554;10.202;2023-08-21T01:56:59;9.88;;;7.18;;
73940;SDS011;62294;48.554;10.202;2023-08-21T01:59:26;11.18;;;7.35;;
73940;SDS011;62294;48.554;10.202;2023-08-21T02:01:52;10.55;;;7.70;;
73940;SDS011;62294;48.554;10.202;2023-08-21T02:04:20;9.60;;;7.28;;
73940;SDS011;62294;48.554;10.202;2023-08-21T02:06:46;10.60;;;7.28;;
73940;SDS011;62294;48.554;10.202;2023-08-21T02:09:13;9.38;;;7.30;;
73940;SDS011;62294;48.554;10.202;2023-08-21T02:11:40;7.97;;;6.50;;
73940;SDS011;62294;48.554;10.202;2023-08-21T02:14:06;9.93;;;7.65;;
73940;SDS011;62294;48.554;10.202;2023-08-21T02:16:33;9.38;;;7.30;;
73940;SDS011;62294;48.554;10.202;2023-08-21T02:18:59;10.43;;;7.38;;
73940;SDS011;62294;48.554;10.202;2023-08-21T02:21:26;10.73;;;7.07;;
73940;SDS011;62294;48.554;10.202;2023-08-21T02:23:52;11.20;;;7.18;;
73940;SDS011;62294;48.554;10.202;2023-08-21T02:26:19;11.80;;;7.63;;
73940;SDS011;62294;48.554;10.202;2023-08-21T02:28:46;10.75;;;7.32;;
73940;SDS011;62294;48.554;10.202;2023-08-21T02:31:12;9.75;;;7.32;;
73940;SDS011;62294;48.554;10.202;2023-08-21T02:33:39;10.90;;;7.43;;
73940;SDS011;62294;48.554;10.202;2023-08-21T02:36:06;10.68;;;8.52;;
73940;SDS011;62294;48.554;10.202;2023-08-21T02:38:33;10.43;;;7.70;;
73940;SDS011;62294;48.554;10.202;2023-08-21T02:41:00;11.25;;;8.00;;
73940;SDS011;62294;48.554;10.202;2023-08-21T02:43:26;8.95;;;7.30;;
73940;SDS011;62294;48.554;10.202;2023-08-21T02:45:53;8.95;;;7.13;;
73940;SDS011;62294;48.554;10.202;2023-08-21T02:48:20;9.20;;;7.57;;
73940;SDS011;62294;48.554;10.202;2023-08-21T02:50:47;10.07;;;7.07;;
73940;SDS011;62294;48.554;10.202;2023-08-21T02:53:14;9.95;;;7.47;;
73940;SDS011;62294;48.554;10.202;2023-08-21T02:55:41;10.73;;;7.43;;
73940;SDS011;62294;48.554;10.202;2023-08-21T02:58:07;11.00;;;7.70;;
73940;SDS011;62294;48.554;10.202;2023-08-21T03:00:35;11.32;;;7.65;;
73940;SDS011;62294;48.554;10.202;2023-08-21T03:03:02;9.85;;;7.28;;
73940;SDS011;62294;48.554;10.202;2023-08-21T03:05:28;10.68;;;7.88;;
73940;SDS011;62294;48.554;10.202;2023-08-21T03:07:55;10.05;;;7.45;;
73940;SDS011;62294;48.554;10.202;2023-08-21T03:10:22;10.50;;;8.15;;
73940;SDS011;62294;48.554;10.202;2023-08-21T03:12:49;10.10;;;8.05;;
73940;SDS011;62294;48.554;10.202;2023-08-21T03:15:16;11.63;;;7.70;;
73940;SDS011;62294;48.554;10.202;2023-08-21T03:17:42;11.70;;;7.38;;
73940;SDS011;62294;48.554;10.202;2023-08-21T03:20:09;10.77;;;7.63;;
73940;SDS011;62294;48.554;10.202;2023-08-21T03:22:36;10.27;;;7.20;;
73940;SDS011;62294;48.554;10.202;2023-08-21T03:25:04;11.48;;;7.03;;
73940;SDS011;62294;48.554;10.202;2023-08-21T03:27:31;9.60;;;7.47;;
73940;SDS011;62294;48.554;10.202;2023-08-21T03:29:57;8.57;;;6.97;;
73940;SDS011;62294;48.554;10.202;2023-08-21T03:32:27;11.20;;;7.47;;
73940;SDS011;62294;48.554;10.202;2023-08-21T03:34:54;11.35;;;7.07;;
73940;SDS011;62294;48.554;10.202;2023-08-21T03:37:20;11.25;;;7.85;;
73940;SDS011;62294;48.554;10.202;2023-08-21T03:39:47;10.45;;;7.28;;
73940;SDS011;62294;48.554;10.202;2023-08-21T03:42:14;10.30;;;7.60;;
73940;SDS011;62294;48.554;10.202;2023-08-21T03:44:40;9.90;;;7.30;;
73940;SDS011;62294;48.554;10.202;2023-08-21T03:47:06;10.07;;;7.65;;
73940;SDS011;62294;48.554;10.202;2023-08-21T03:49:34;8.85;;;6.88;;
73940;SDS011;62294;48.554;10.202;2023-08-21T03:52:00;9.65;;;7.43;;
73940;SDS011;62294;48.554;10.202;2023-08-21T03:54:27;10.48;;;7.55;;
73940;SDS011;62294;48.554;10.202;2023-08-21T03:56:53;10.95;;;7.00;;
73940;SDS011;62294;48.554;10.202;2023-08-21T03:59:20;8.75;;;7.05;;
73940;SDS011;62294;48.554;10.202;2023-08-21T04:01:46;10.38;;;7.30;;
73940;SDS011;62294;48.554;10.202;2023-08-21T04:04:13;10.05;;;8.00;;
73940;SDS011;62294;48.554;10.202;2023-08-21T04:06:39;10.57;;;7.90;;
73940;SDS011;62294;48.554;10.202;2023-08-21T04:09:06;9.70;;;7.45;;
73940;SDS011;62294;48.554;10.202;2023-08-21T04:11:33;10.45;;;7.20;;
73940;SDS011;62294;48.554;10.202;2023-08-21T04:14:00;9.27;;;7.45;;
73940;SDS011;62294;48.554;10.202;2023-08-21T04:16:27;11.90;;;8.23;;
73940;SDS011;62294;48.554;10.202;2023-08-21T04:18:54;10.00;;;7.97;;
73940;SDS011;62294;48.554;10.202;2023-08-21T04:21:21;12.93;;;8.15;;
73940;SDS011;62294;48.554;10.202;2023-08-21T04:23:50;9.32;;;7.57;;
73940;SDS011;62294;48.554;10.202;2023-08-21T04:26:16;9.93;;;7.45;;
73940;SDS011;62294;48.554;10.202;2023-08-21T04:28:43;9.32;;;6.97;;
73940;SDS011;62294;48.554;10.202;2023-08-21T04:31:09;10.80;;;7.82;;
73940;SDS011;62294;48.554;10.202;2023-08-21T04:33:36;9.60;;;7.45;;
73940;SDS011;62294;48.554;10.202;2023-08-21T04:36:03;11.30;;;7.35;;
73940;SDS011;62294;48.554;10.202;2023-08-21T04:38:29;10.13;;;7.45;;
73940;SDS011;62294;48.554;10.202;2023-08-21T04:41:00;13.00;;;7.70;;
73940;SDS011;62294;48.554;10.202;2023-08-21T04:43:32;11.43;;;7.00;;
73940;SDS011;62294;48.554;10.202;2023-08-21T04:45:59;10.90;;;7.90;;
73940;SDS011;62294;48.554;10.202;2023-08-21T04:48:26;10.20;;;7.88;;
73940;SDS011;62294;48.554;10.202;2023-08-21T04:50:52;11.70;;;8.07;;
73940;SDS011;62294;48.554;10.202;2023-08-21T04:53:19;10.27;;;7.93;;
73940;SDS011;62294;48.554;10.202;2023-08-21T04:55:45;10.60;;;7.82;;
73940;SDS011;62294;48.554;10.202;2023-08-21T04:58:12;10.60;;;7.30;;
73940;SDS011;62294;48.554;10.202;2023-08-21T05:00:39;9.90;;;7.65;;
73940;SDS011;62294;48.554;10.202;2023-08-21T05:03:06;10.23;;;7.82;;
73940;SDS011;62294;48.554;10.202;2023-08-21T05:05:35;10.65;;;8.63;;
73940;SDS011;62294;48.554;10.202;2023-08-21T05:08:02;10.90;;;7.43;;
73940;SDS011;62294;48.554;10.202;2023-08-21T05:10:29;9.48;;;7.35;;
73940;SDS011;62294;48.554;10.202;2023-08-21T05:12:56;10.68;;;7.40;;
73940;SDS011;62294;48.554;10.202;2023-08-21T05:15:23;11.20;;;6.95;;
73940;SDS011;62294;48.554;10.202;2023-08-21T05:17:49;11.32;;;8.27;;
73940;SDS011;62294;48.554;10.202;2023-08-21T05:20:16;10.13;;;7.78;;
73940;SDS011;62294;48.554;10.202;2023-08-21T05:22:43;12.70;;;7.72;;
73940;SDS011;62294;48.554;10.202;2023-08-21T05:25:10;9.48;;;7.43;;
73940;SDS011;62294;48.554;10.202;2023-08-21T05:27:37;12.77;;;7.47;;
73940;SDS011;62294;48.554;10.202;2023-08-21T05:30:03;10.18;;;7.75;;
73940;SDS011;62294;48.554;10.202;2023-08-21T05:32:31;9.77;;;7.30;;
73940;SDS011;62294;48.554;10.202;2023-08-21T05:34:57;10.80;;;7.47;;
73940;SDS011;62294;48.554;10.202;2023-08-21T05:37:24;9.00;;;7.35;;
73940;SDS011;62294;48.554;10.202;2023-08-21T05:39:53;9.60;;;7.45;;
73940;SDS011;62294;48.554;10.202;2023-08-21T05:42:19;9.80;;;8.02;;
73940;SDS011;62294;48.554;10.202;2023-08-21T05:44:46;12.02;;;7.53;;
73940;SDS011;62294;48.554;10.202;2023-08-21T05:47:12;10.75;;;7.80;;
73940;SDS011;62294;48.554;10.202;2023-08-21T05:49:39;11.68;;;7.53;;
73940;SDS011;62294;48.554;10.202;2023-08-21T05:52:06;8.93;;;6.97;;
73940;SDS011;62294;48.554;10.202;2023-08-21T05:54:32;10.10;;;7.13;;
73940;SDS011;62294;48.554;10.202;2023-08-21T05:56:59;8.15;;;6.75;;
73940;SDS011;62294;48.554;10.202;2023-08-21T05:59:26;9.70;;;6.82;;
73940;SDS011;62294;48.554;10.202;2023-08-21T06:01:56;9.50;;;7.07;;
73940;SDS011;62294;48.554;10.202;2023-08-21T06:04:23;9.00;;;6.30;;
73940;SDS011;62294;48.554;10.202;2023-08-21T06:06:50;7.20;;;5.75;;
73940;SDS011;62294;48.554;10.202;2023-08-21T06:09:17;9.70;;;6.18;;
73940;SDS011;62294;48.554;10.202;2023-08-21T06:11:44;9.38;;;6.03;;
73940;SDS011;62294;48.554;10.202;2023-08-21T06:14:10;9.43;;;6.72;;
73940;SDS011;62294;48.554;10.202;2023-08-21T06:16:37;9.98;;;7.32;;
73940;SDS011;62294;48.554;10.202;2023-08-21T06:19:03;10.00;;;7.00;;
73940;SDS011;62294;48.554;10.202;2023-08-21T06:21:30;9.23;;;6.53;;
73940;SDS011;62294;48.554;10.202;2023-08-21T06:23:57;7.40;;;5.78;;
73940;SDS011;62294;48.554;10.202;2023-08-21T06:26:23;8.27;;;6.82;;
73940;SDS011;62294;48.554;10.202;2023-08-21T06:28:51;7.85;;;5.90;;
73940;SDS011;62294;48.554;10.202;2023-08-21T06:31:18;8.85;;;6.18;;
73940;SDS011;62294;48.554;10.202;2023-08-21T06:33:45;10.20;;;5.93;;
73940;SDS011;62294;48.554;10.202;2023-08-21T06:36:11;7.07;;;5.75;;
73940;SDS011;62294;48.554;10.202;2023-08-21T06:38:37;8.50;;;6.05;;
73940;SDS011;62294;48.554;10.202;2023-08-21T06:41:04;8.93;;;6.10;;
73940;SDS011;62294;48.554;10.202;2023-08-21T06:43:37;6.60;;;5.35;;
73940;SDS011;62294;48.554;10.202;2023-08-21T06:46:07;9.57;;;6.30;;
73940;SDS011;62294;48.554;10.202;2023-08-21T06:48:37;9.30;;;5.45;;
73940;SDS011;62294;48.554;10.202;2023-08-21T06:51:05;8.63;;;6.70;;
73940;SDS011;62294;48.554;10.202;2023-08-21T06:53:31;10.05;;;6.35;;
73940;SDS011;62294;48.554;10.202;2023-08-21T06:55:58;8.43;;;5.88;;
73940;SDS011;62294;48.554;10.202;2023-08-21T06:58:25;7.72;;;6.10;;
73940;SDS011;62294;48.554;10.202;2023-08-21T07:00:53;7.65;;;5.18;;
73940;SDS011;62294;48.554;10.202;2023-08-21T07:03:20;7.35;;;6.28;;
73940;SDS011;62294;48.554;10.202;2023-08-21T07:05:52;10.02;;;6.03;;
73940;SDS011;62294;48.554;10.202;2023-08-21T07:08:20;9.60;;;6.25;;
73940;SDS011;62294;48.554;10.202;2023-08-21T07:10:46;9.27;;;6.13;;
73940;SDS011;62294;48.554;10.202;2023-08-21T07:13:13;10.82;;;6.93;;
73940;SDS011;62294;48.554;10.202;2023-08-21T07:15:40;8.88;;;6.20;;
73940;SDS011;62294;48.554;10.202;2023-08-21T07:18:06;9.73;;;6.22;;
73940;SDS011;62294;48.554;10.202;2023-08-21T07:20:34;12.25;;;6.57;;
73940;SDS011;62294;48.554;10.202;2023-08-21T07:23:00;14.48;;;6.97;;
73940;SDS011;62294;48.554;10.202;2023-08-21T07:25:27;11.10;;;6.70;;
73940;SDS011;62294;48.554;10.202;2023-08-21T07:27:57;8.77;;;5.85;;
73940;SDS011;62294;48.554;10.202;2023-08-21T07:30:25;12.38;;;6.60;;
73940;SDS011;62294;48.554;10.202;2023-08-21T07:32:52;12.05;;;6.05;;
73940;SDS011;62294;48.554;10.202;2023-08-21T07:35:19;7.18;;;5.78;;
73940;SDS011;62294;48.554;10.202;2023-08-21T07:37:47;7.78;;;5.32;;
73940;SDS011;62294;48.554;10.202;2023-08-21T07:40:13;7.72;;;5.85;;
73940;SDS011;62294;48.554;10.202;2023-08-21T07:42:40;8.48;;;5.78;;
73940;SDS011;62294;48.554;10.202;2023-08-21T07:45:07;6.97;;;5.45;;
73940;SDS011;62294;48.554;10.202;2023-08-21T07:47:34;8.90;;;5.88;;
73940;SDS011;62294;48.554;10.202;2023-08-21T07:50:03;8.48;;;5.50;;
73940;SDS011;62294;48.554;10.202;2023-08-21T07:52:30;8.68;;;5.93;;
73940;SDS011;62294;48.554;10.202;2023-08-21T07:54:57;8.60;;;5.50;;
73940;SDS011;62294;48.554;10.202;2023-08-21T07:57:31;8.35;;;5.85;;
73940;SDS011;62294;48.554;10.202;2023-08-21T07:59:58;8.25;;;6.07;;
73940;SDS011;62294;48.554;10.202;2023-08-21T08:02:24;8.80;;;5.90;;
73940;SDS011;62294;48.554;10.202;2023-08-21T08:04:51;9.35;;;6.05;;
73940;SDS011;62294;48.554;10.202;2023-08-21T08:07:18;9.52;;;6.07;;
73940;SDS011;62294;48.554;10.202;2023-08-21T08:09:44;9.63;;;5.30;;
73940;SDS011;62294;48.554;10.202;2023-08-21T08:12:11;9.10;;;5.85;;
73940;SDS011;62294;48.554;10.202;2023-08-21T08:14:37;12.13;;;6.38;;
73940;SDS011;62294;48.554;10.202;2023-08-21T08:17:04;7.45;;;5.50;;
73940;SDS011;62294;48.554;10.202;2023-08-21T08:19:31;9.13;;;6.05;;
73940;SDS011;62294;48.554;10.202;2023-08-21T08:21:57;8.07;;;6.13;;
73940;SDS011;62294;48.554;10.202;2023-08-21T08:24:23;7.78;;;6.50;;
73940;SDS011;62294;48.554;10.202;2023-08-21T08:26:50;8.27;;;6.35;;
73940;SDS011;62294;48.554;10.202;2023-08-21T08:29:17;10.30;;;5.97;;
73940;SDS011;62294;48.554;10.202;2023-08-21T08:31:43;9.38;;;6.45;;
73940;SDS011;62294;48.554;10.202;2023-08-21T08:34:10;9.05;;;6.03;;
73940;SDS011;62294;48.554;10.202;2023-08-21T08:36:36;9.57;;;6.53;;
73940;SDS011;62294;48.554;10.202;2023-08-21T08:39:03;10.15;;;6.50;;
73940;SDS011;62294;48.554;10.202;2023-08-21T08:41:34;7.97;;;6.20;;
73940;SDS011;62294;48.554;10.202;2023-08-21T08:44:24;9.65;;;6.38;;
73940;SDS011;62294;48.554;10.202;2023-08-21T08:46:52;8.57;;;6.25;;
73940;SDS011;62294;48.554;10.202;2023-08-21T08:49:18;7.75;;;5.80;;
73940;SDS011;62294;48.554;10.202;2023-08-21T08:51:47;8.10;;;5.85;;
73940;SDS011;62294;48.554;10.202;2023-08-21T08:54:16;9.68;;;6.20;;
73940;SDS011;62294;48.554;10.202;2023-08-21T08:56:44;10.00;;;6.65;;
73940;SDS011;62294;48.554;10.202;2023-08-21T08:59:14;7.70;;;6.30;;
73940;SDS011;62294;48.554;10.202;2023-08-21T09:01:41;8.18;;;6.10;;
73940;SDS011;62294;48.554;10.202;2023-08-21T09:04:08;6.90;;;5.85;;
73940;SDS011;62294;48.554;10.202;2023-08-21T09:06:36;7.75;;;6.30;;
73940;SDS011;62294;48.554;10.202;2023-08-21T09:09:03;8.02;;;5.97;;
73940;SDS011;62294;48.554;10.202;2023-08-21T09:11:31;10.63;;;6.40;;
73940;SDS011;62294;48.554;10.202;2023-08-21T09:13:58;10.57;;;7.30;;
73940;SDS011;62294;48.554;10.202;2023-08-21T09:16:25;9.40;;;6.60;;
73940;SDS011;62294;48.554;10.202;2023-08-21T09:18:53;7.95;;;5.95;;
73940;SDS011;62294;48.554;10.202;2023-08-21T09:21:23;7.75;;;6.55;;
73940;SDS011;62294;48.554;10.202;2023-08-21T09:23:57;9.60;;;6.20;;
73940;SDS011;62294;48.554;10.202;2023-08-21T09:26:25;7.75;;;6.00;;
73940;SDS011;62294;48.554;10.202;2023-08-21T09:28:52;9.23;;;6.68;;
73940;SDS011;62294;48.554;10.202;2023-08-21T09:31:22;9.32;;;6.18;;
73940;SDS011;62294;48.554;10.202;2023-08-21T09:34:00;10.38;;;6.20;;
73940;SDS011;62294;48.554;10.202;2023-08-21T09:36:31;7.45;;;6.75;;
73940;SDS011;62294;48.554;10.202;2023-08-21T09:38:59;10.02;;;6.78;;
73940;SDS011;62294;48.554;10.202;2023-08-21T09:41:26;9.13;;;6.35;;
73940;SDS011;62294;48.554;10.202;2023-08-21T09:43:53;7.38;;;6.32;;
73940;SDS011;62294;48.554;10.202;2023-08-21T09:46:26;7.90;;;6.32;;
73940;SDS011;62294;48.554;10.202;2023-08-21T09:48:53;8.43;;;6.43;;
73940;SDS011;62294;48.554;10.202;2023-08-21T09:51:20;7.20;;;6.32;;
73940;SDS011;62294;48.554;10.202;2023-08-21T09:53:50;7.90;;;6.60;;
73940;SDS011;62294;48.554;10.202;2023-08-21T09:56:20;10.98;;;6.22;;
73940;SDS011;62294;48.554;10.202;2023-08-21T09:58:49;7.97;;;6.38;;
73940;SDS011;62294;48.554;10.202;2023-08-21T10:01:17;7.65;;;6.60;;
73940;SDS011;62294;48.554;10.202;2023-08-21T10:03:47;8.07;;;6.25;;
73940;SDS011;62294;48.554;10.202;2023-08-21T10:06:17;10.63;;;6.40;;
73940;SDS011;62294;48.554;10.202;2023-08-21T10:08:48;8.30;;;5.90;;
73940;SDS011;62294;48.554;10.202;2023-08-21T10:11:20;6.53;;;5.30;;
73940;SDS011;62294;48.554;10.202;2023-08-21T10:13:47;8.55;;;5.75;;
73940;SDS011;62294;48.554;10.202;2023-08-21T10:16:18;8.77;;;6.15;;
73940;SDS011;62294;48.554;10.202;2023-08-21T10:18:47;8.95;;;5.60;;
73940;SDS011;62294;48.554;10.202;2023-08-21T10:21:18;10.82;;;5.78;;
73940;SDS011;62294;48.554;10.202;2023-08-21T10:23:51;7.43;;;5.90;;
73940;SDS011;62294;48.554;10.202;2023-08-21T10:26:22;6.85;;;5.80;;
73940;SDS011;62294;48.554;10.202;2023-08-21T10:28:56;8.02;;;6.15;;
73940;SDS011;62294;48.554;10.202;2023-08-21T10:34:06;9.25;;;5.45;;
73940;SDS011;62294;48.554;10.202;2023-08-21T10:36:37;9.23;;;5.85;;
73940;SDS011;62294;48.554;10.202;2023-08-21T10:39:16;7.82;;;5.88;;
73940;SDS011;62294;48.554;10.202;2023-08-21T10:42:00;8.90;;;5.93;;
73940;SDS011;62294;48.554;10.202;2023-08-21T10:47:18;7.25;;;5.85;;
73940;SDS011;62294;48.554;10.202;2023-08-21T10:49:45;13.35;;;5.95;;
73940;SDS011;62294;48.554;10.202;2023-08-21T10:52:13;6.97;;;5.63;;
73940;SDS011;62294;48.554;10.202;2023-08-21T10:54:51;9.88;;;5.43;;
73940;SDS011;62294;48.554;10.202;2023-08-21T10:57:19;8.98;;;5.38;;
73940;SDS011;62294;48.554;10.202;2023-08-21T10:59:53;9.10;;;5.60;;
73940;SDS011;62294;48.554;10.202;2023-08-21T11:02:27;6.47;;;5.22;;
73940;SDS011;62294;48.554;10.202;2023-08-21T11:04:55;10.55;;;6.22;;
73940;SDS011;62294;48.554;10.202;2023-08-21T11:07:22;9.05;;;5.50;;
73940;SDS011;62294;48.554;10.202;2023-08-21T11:09:49;8.18;;;5.50;;
73940;SDS011;62294;48.554;10.202;2023-08-21T11:12:17;7.05;;;5.10;;
73940;SDS011;62294;48.554;10.202;2023-08-21T11:14:46;5.50;;;4.78;;
73940;SDS011;62294;48.554;10.202;2023-08-21T11:17:12;7.20;;;4.88;;
73940;SDS011;62294;48.554;10.202;2023-08-21T11:19:40;11.77;;;5.43;;
73940;SDS011;62294;48.554;10.202;2023-08-21T11:22:08;7.50;;;5.15;;
73940;SDS011;62294;48.554;10.202;2023-08-21T11:27:04;6.88;;;5.07;;
73940;SDS011;62294;48.554;10.202;2023-08-21T11:29:38;8.23;;;5.53;;
73940;SDS011;62294;48.554;10.202;2023-08-21T11:32:11;9.40;;;5.75;;
73940;SDS011;62294;48.554;10.202;2023-08-21T11:37:20;7.07;;;5.25;;
73940;SDS011;62294;48.554;10.202;2023-08-21T11:39:49;10.70;;;5.53;;
73940;SDS011;62294;48.554;10.202;2023-08-21T11:42:20;6.85;;;5.47;;
73940;SDS011;62294;48.554;10.202;2023-08-21T11:44:52;9.15;;;5.97;;
73940;SDS011;62294;48.554;10.202;2023-08-21T11:47:20;8.38;;;5.13;;
73940;SDS011;62294;48.554;10.202;2023-08-21T11:49:48;7.03;;;5.43;;
73940;SDS011;62294;48.554;10.202;2023-08-21T11:52:19;6.90;;;5.07;;
73940;SDS011;62294;48.554;10.202;2023-08-21T11:54:53;8.07;;;5.28;;
73940;SDS011;62294;48.554;10.202;2023-08-21T11:57:20;6.82;;;5.03;;
73940;SDS011;62294;48.554;10.202;2023-08-21T11:59:50;8.45;;;5.32;;
73940;SDS011;62294;48.554;10.202;2023-08-21T12:02:18;8.70;;;5.50;;
73940;SDS011;62294;48.554;10.202;2023-08-21T12:04:55;9.15;;;4.82;;
73940;SDS011;62294;48.554;10.202;2023-08-21T12:07:28;6.78;;;5.00;;
73940;SDS011;62294;48.554;10.202;2023-08-21T12:09:55;6.72;;;5.20;;
73940;SDS011;62294;48.554;10.202;2023-08-21T12:12:22;5.55;;;4.95;;
73940;SDS011;62294;48.554;10.202;2023-08-21T12:14:49;8.27;;;5.78;;
73940;SDS011;62294;48.554;10.202;2023-08-21T12:17:16;5.90;;;5.15;;
73940;SDS011;62294;48.554;10.202;2023-08-21T12:19:42;5.90;;;5.30;;
73940;SDS011;62294;48.554;10.202;2023-08-21T12:22:10;6.85;;;5.03;;
73940;SDS011;62294;48.554;10.202;2023-08-21T12:24:36;7.93;;;5.03;;
73940;SDS011;62294;48.554;10.202;2023-08-21T12:27:03;9.07;;;5.25;;
73940;SDS011;62294;48.554;10.202;2023-08-21T12:29:30;6.60;;;5.22;;
73940;SDS011;62294;48.554;10.202;2023-08-21T12:31:57;9.38;;;5.20;;
73940;SDS011;62294;48.554;10.202;2023-08-21T12:34:23;8.85;;;5.15;;
73940;SDS011;62294;48.554;10.202;2023-08-21T12:36:50;9.43;;;5.40;;
73940;SDS011;62294;48.554;10.202;2023-08-21T12:39:17;8.43;;;5.43;;
73940;SDS011;62294;48.554;10.202;2023-08-21T12:41:44;5.65;;;4.75;;
73940;SDS011;62294;48.554;10.202;2023-08-21T12:44:11;7.85;;;5.60;;
73940;SDS011;62294;48.554;10.202;2023-08-21T12:46:38;7.68;;;5.43;;
73940;SDS011;62294;48.554;10.202;2023-08-21T12:49:04;6.75;;;5.57;;
73940;SDS011;62294;48.554;10.202;2023-08-21T12:51:31;6.60;;;5.30;;
73940;SDS011;62294;48.554;10.202;2023-08-21T12:53:58;7.43;;;5.45;;
73940;SDS011;62294;48.554;10.202;2023-08-21T12:56:24;7.32;;;5.15;;
73940;SDS011;62294;48.554;10.202;2023-08-21T12:58:51;6.95;;;5.15;;
73940;SDS011;62294;48.554;10.202;2023-08-21T13:01:18;6.57;;;5.03;;
73940;SDS011;62294;48.554;10.202;2023-08-21T13:03:45;6.93;;;5.15;;
73940;SDS011;62294;48.554;10.202;2023-08-21T13:06:13;8.15;;;4.75;;
73940;SDS011;62294;48.554;10.202;2023-08-21T13:08:40;6.57;;;5.45;;
73940;SDS011;62294;48.554;10.202;2023-08-21T13:11:07;9.25;;;5.15;;
73940;SDS011;62294;48.554;10.202;2023-08-21T13:13:34;8.48;;;5.22;;
73940;SDS011;62294;48.554;10.202;2023-08-21T13:16:00;6.50;;;5.60;;
73940;SDS011;62294;48.554;10.202;2023-08-21T13:18:27;7.68;;;5.68;;
73940;SDS011;62294;48.554;10.202;2023-08-21T13:20:54;6.88;;;5.10;;
73940;SDS011;62294;48.554;10.202;2023-08-21T13:23:20;8.95;;;6.03;;
73940;SDS011;62294;48.554;10.202;2023-08-21T13:25:47;7.35;;;5.65;;
73940;SDS011;62294;48.554;10.202;2023-08-21T13:28:13;7.82;;;5.40;;
73940;SDS011;62294;48.554;10.202;2023-08-21T13:30:40;8.88;;;5.32;;
73940;SDS011;62294;48.554;10.202;2023-08-21T13:33:07;9.13;;;6.00;;
73940;SDS011;62294;48.554;10.202;2023-08-21T13:35:33;9.38;;;5.88;;
73940;SDS011;62294;48.554;10.202;2023-08-21T13:38:00;8.13;;;5.35;;
73940;SDS011;62294;48.554;10.202;2023-08-21T13:40:26;8.35;;;5.60;;
73940;SDS011;62294;48.554;10.202;2023-08-21T13:42:53;6.25;;;5.22;;
73940;SDS011;62294;48.554;10.202;2023-08-21T13:45:20;9.10;;;5.57;;
73940;SDS011;62294;48.554;10.202;2023-08-21T13:47:47;7.07;;;6.05;;
73940;SDS011;62294;48.554;10.202;2023-08-21T13:50:15;10.48;;;5.43;;
73940;SDS011;62294;48.554;10.202;2023-08-21T13:52:45;10.15;;;5.47;;
73940;SDS011;62294;48.554;10.202;2023-08-21T13:55:13;6.97;;;5.65;;
73940;SDS011;62294;48.554;10.202;2023-08-21T13:57:40;9.10;;;5.28;;
73940;SDS011;62294;48.554;10.202;2023-08-21T14:00:08;10.35;;;5.32;;
73940;SDS011;62294;48.554;10.202;2023-08-21T14:02:38;8.10;;;5.90;;
73940;SDS011;62294;48.554;10.202;2023-08-21T14:05:09;14.18;;;6.32;;
73940;SDS011;62294;48.554;10.202;2023-08-21T14:07:37;10.25;;;5.65;;
73940;SDS011;62294;48.554;10.202;2023-08-21T14:10:07;8.77;;;5.70;;
73940;SDS011;62294;48.554;10.202;2023-08-21T14:12:34;8.00;;;5.25;;
73940;SDS011;62294;48.554;10.202;2023-08-21T14:15:03;8.02;;;5.28;;
73940;SDS011;62294;48.554;10.202;2023-08-21T14:17:30;9.15;;;5.85;;
73940;SDS011;62294;48.554;10.202;2023-08-21T14:19:56;10.35;;;6.15;;
73940;SDS011;62294;48.554;10.202;2023-08-21T14:22:23;9.23;;;5.45;;
73940;SDS011;62294;48.554;10.202;2023-08-21T14:24:49;11.15;;;5.90;;
73940;SDS011;62294;48.554;10.202;2023-08-21T14:27:16;10.45;;;5.55;;
73940;SDS011;62294;48.554;10.202;2023-08-21T14:29:43;6.75;;;5.45;;
73940;SDS011;62294;48.554;10.202;2023-08-21T14:32:12;11.10;;;6.03;;
73940;SDS011;62294;48.554;10.202;2023-08-21T14:34:39;11.18;;;5.18;;
73940;SDS011;62294;48.554;10.202;2023-08-21T14:37:05;8.25;;;5.00;;
73940;SDS011;62294;48.554;10.202;2023-08-21T14:39:32;8.18;;;5.53;;
73940;SDS011;62294;48.554;10.202;2023-08-21T14:41:59;8.80;;;6.28;;
73940;SDS011;62294;48.554;10.202;2023-08-21T14:44:25;6.97;;;5.40;;
73940;SDS011;62294;48.554;10.202;2023-08-21T14:46:52;8.00;;;5.32;;